Time;durP1;ratioP1;P1;durP2;ratioP2;P2;SDS_P1;SDS_P2;PMS_P1;PMS_P2;Temp;Humidity;BMP_temperature;BMP_pressure;BME280_temperature;BME280_humidity;BME280_pressure;Samples;Min_cycle;Max_cycle;Signal;HPM_P1;HPM_P2
2022/12/09 00:02:38;;;;;;;14.70;12.97;;;;;1.60;98003.00;;;;16726983;28;20202;-51
2022/12/09 00:10:43;;;;;;;11.20;9.70;;;;;1.40;97994.00;;;;16749622;28;20233;-50
2022/12/09 00:18:47;;;;;;;14.80;11.60;;;;;1.50;97991.00;;;;16755332;28;20235;-49
2022/12/09 00:26:50;;;;;;;11.90;10.67;;;;;1.50;97984.00;;;;16737088;28;20227;-50
2022/12/09 00:34:53;;;;;;;14.00;10.20;;;;;1.40;97975.00;;;;16740336;28;20251;-50
2022/12/09 00:43:14;;;;;;;12.40;9.93;;;;;1.30;97966.00;;;;16740989;28;20347;-49
2022/12/09 00:51:20;;;;;;;20.03;12.10;;;;;1.40;97974.00;;;;16714989;28;20578;-50
2022/12/09 00:59:22;;;;;;;9.17;8.27;;;;;1.30;97971.00;;;;16738456;28;20224;-49
2022/12/09 01:07:26;;;;;;;10.23;8.87;;;;;1.30;97983.00;;;;16728793;28;20252;-49
2022/12/09 01:15:29;;;;;;;11.37;9.10;;;;;1.30;97969.00;;;;16742438;28;20267;-49
2022/12/09 01:23:33;;;;;;;9.73;7.43;;;;;1.00;97979.00;;;;16739407;28;20253;-49
2022/12/09 01:31:35;;;;;;;15.47;11.33;;;;;1.10;97973.00;;;;16716491;28;20215;-50
2022/12/09 01:39:40;;;;;;;10.90;9.80;;;;;1.20;97976.00;;;;16760856;28;20630;-49
2022/12/09 01:47:42;;;;;;;12.13;9.60;;;;;1.10;97972.00;;;;16750928;28;20873;-48
2022/12/09 01:55:46;;;;;;;13.47;9.80;;;;;1.30;97959.00;;;;16727686;28;20604;-50
2022/12/09 02:03:49;;;;;;;12.93;10.53;;;;;1.30;97949.00;;;;16729852;28;20308;-48
2022/12/09 02:12:04;;;;;;;12.13;8.70;;;;;1.00;97928.00;;;;16748609;28;20208;-48
2022/12/09 02:20:15;;;;;;;15.83;12.00;;;;;0.90;97921.00;;;;16750681;28;20225;-47
2022/12/09 02:28:50;;;;;;;11.37;10.30;;;;;1.00;97920.00;;;;16709718;28;20583;-48
2022/12/09 02:37:06;;;;;;;12.10;8.87;;;;;0.30;97931.00;;;;16730664;28;20219;-46
2022/12/09 02:45:11;;;;;;;13.30;9.83;;;;;0.50;97927.00;;;;16761692;28;20231;-48
2022/12/09 02:53:18;;;;;;;12.00;9.57;;;;;0.70;97922.00;;;;16731867;28;20211;-47
2022/12/09 03:01:23;;;;;;;13.23;9.10;;;;;0.60;97889.00;;;;16733831;28;20230;-47
2022/12/09 03:09:29;;;;;;;13.50;8.80;;;;;0.60;97892.00;;;;16766810;28;20588;-46
2022/12/09 03:17:33;;;;;;;9.27;8.30;;;;;0.30;97877.00;;;;16757914;28;20226;-47
2022/12/09 03:25:40;;;;;;;10.10;8.23;;;;;0.50;97870.00;;;;16746569;28;20229;-48
2022/12/09 03:43:13;;;;;;;14.93;11.47;;;;;0.40;97870.00;;;;16748939;28;20197;-48
2022/12/09 03:51:18;;;;;;;10.80;9.30;;;;;0.60;97852.00;;;;16749396;28;20709;-46
2022/12/09 03:59:23;;;;;;;11.63;9.30;;;;;0.40;97862.00;;;;16741496;28;20231;-49
2022/12/09 04:07:26;;;;;;;14.30;10.50;;;;;0.50;97865.00;;;;16736666;28;20726;-49
2022/12/09 04:15:30;;;;;;;10.30;9.20;;;;;0.30;97857.00;;;;16747018;28;20227;-49
2022/12/09 04:23:32;;;;;;;12.40;10.57;;;;;0.60;97844.00;;;;16757573;28;20227;-48
2022/12/09 04:31:36;;;;;;;14.40;9.93;;;;;0.50;97829.00;;;;16731188;28;20225;-49
2022/12/09 04:39:40;;;;;;;13.63;11.30;;;;;0.40;97815.00;;;;16733198;28;20210;-48
2022/12/09 04:47:43;;;;;;;12.57;10.10;;;;;0.50;97791.00;;;;16733252;28;20230;-47
2022/12/09 04:55:46;;;;;;;12.03;10.37;;;;;0.30;97792.00;;;;16706330;28;20270;-49
2022/12/09 05:03:50;;;;;;;11.37;9.87;;;;;0.50;97791.00;;;;16748570;28;20857;-48
2022/12/09 05:11:53;;;;;;;13.43;10.20;;;;;0.60;97771.00;;;;16749109;28;20219;-46
2022/12/09 05:19:57;;;;;;;10.47;9.37;;;;;0.70;97783.00;;;;16746262;28;20230;-45
2022/12/09 05:27:59;;;;;;;11.97;10.10;;;;;0.60;97775.00;;;;16722506;28;20229;-47
2022/12/09 05:36:04;;;;;;;12.80;10.77;;;;;0.70;97772.00;;;;16714476;28;20715;-47
2022/12/09 05:44:07;;;;;;;15.40;12.10;;;;;0.90;97749.00;;;;16711642;28;20225;-48
2022/12/09 05:52:13;;;;;;;15.57;13.97;;;;;0.70;97744.00;;;;16730360;28;20844;-47
2022/12/09 06:00:16;;;;;;;16.57;13.90;;;;;0.70;97741.00;;;;16706641;28;20232;-45
2022/12/09 06:08:20;;;;;;;14.97;13.37;;;;;0.80;97737.00;;;;16744916;28;20226;-47
2022/12/09 06:16:23;;;;;;;24.33;20.87;;;;;1.20;97711.00;;;;16730322;28;20266;-47
2022/12/09 06:24:26;;;;;;;14.33;11.80;;;;;1.20;97718.00;;;;16721987;28;20293;-45
2022/12/09 06:32:30;;;;;;;13.03;11.37;;;;;1.00;97719.00;;;;16722182;28;20255;-48
2022/12/09 06:40:33;;;;;;;14.33;12.90;;;;;1.60;97710.00;;;;16720119;28;20230;-46
2022/12/09 06:48:36;;;;;;;14.30;11.67;;;;;1.20;97719.00;;;;16730083;28;20824;-49
2022/12/09 06:56:40;;;;;;;14.87;11.37;;;;;1.30;97717.00;;;;16741047;28;20704;-48
2022/12/09 07:04:42;;;;;;;14.13;12.20;;;;;1.40;97713.00;;;;16732585;28;20218;-49
2022/12/09 07:12:46;;;;;;;15.80;12.23;;;;;1.40;97704.00;;;;16737724;28;20216;-45
2022/12/09 07:20:49;;;;;;;17.60;11.67;;;;;1.60;97685.00;;;;16737074;28;20240;-46
2022/12/09 07:28:53;;;;;;;19.90;13.20;;;;;2.00;97694.00;;;;16720920;28;20350;-47
2022/12/09 07:36:55;;;;;;;16.87;12.33;;;;;2.60;97692.00;;;;16727316;28;20859;-47
2022/12/09 07:44:59;;;;;;;16.80;13.83;;;;;2.10;97684.00;;;;16713621;28;20217;-48
2022/12/09 07:53:01;;;;;;;18.90;13.30;;;;;2.40;97678.00;;;;16725732;28;20556;-48
2022/12/09 08:01:07;;;;;;;27.33;17.63;;;;;2.10;97684.00;;;;16715667;28;20225;-49
2022/12/09 08:09:13;;;;;;;15.97;13.00;;;;;2.50;97681.00;;;;16705976;28;20257;-49
2022/12/09 08:17:17;;;;;;;19.87;13.63;;;;;2.60;97674.00;;;;16687035;28;20226;-48
2022/12/09 08:25:19;;;;;;;12.37;11.07;;;;;2.70;97668.00;;;;16693639;28;20220;-48
2022/12/09 08:33:23;;;;;;;16.43;11.60;;;;;2.70;97653.00;;;;16686695;28;20303;-49
2022/12/09 08:41:34;;;;;;;17.43;13.00;;;;;3.00;97644.00;;;;16705297;28;20766;-46
2022/12/09 08:49:39;;;;;;;17.87;13.83;;;;;3.30;97635.00;;;;16699228;28;20754;-47
2022/12/09 08:57:41;;;;;;;16.47;13.23;;;;;3.30;97639.00;;;;16694829;28;20217;-47
2022/12/09 09:05:45;;;;;;;20.80;15.47;;;;;3.40;97624.00;;;;16697761;28;20722;-46
2022/12/09 09:13:50;;;;;;;17.23;12.83;;;;;3.00;97625.00;;;;16703670;28;20229;-46
2022/12/09 09:21:55;;;;;;;22.80;15.47;;;;;3.30;97636.00;;;;16708966;28;20690;-47
2022/12/09 09:29:57;;;;;;;17.67;14.43;;;;;3.70;97620.00;;;;16713959;28;20263;-47
2022/12/09 09:38:02;;;;;;;19.30;14.03;;;;;4.20;97607.00;;;;16715333;28;20228;-47
2022/12/09 09:46:05;;;;;;;19.50;14.27;;;;;4.30;97611.00;;;;16694521;28;20360;-47
2022/12/09 09:54:10;;;;;;;16.87;13.53;;;;;4.50;97583.00;;;;16717780;28;20218;-47
2022/12/09 10:02:22;;;;;;;19.80;14.40;;;;;3.70;97589.00;;;;16711771;28;20199;-46
2022/12/09 10:10:36;;;;;;;19.33;16.00;;;;;4.10;97587.00;;;;16702149;28;20218;-47
2022/12/09 10:18:47;;;;;;;18.17;14.73;;;;;4.00;97567.00;;;;16698947;28;20324;-47
2022/12/09 10:27:01;;;;;;;21.13;16.40;;;;;4.20;97567.00;;;;16703144;28;20777;-49
2022/12/09 10:35:13;;;;;;;20.47;16.13;;;;;3.70;97580.00;;;;16706237;28;20684;-48
2022/12/09 10:43:35;;;;;;;25.30;15.47;;;;;4.10;97558.00;;;;16716479;28;20321;-48
2022/12/09 10:51:38;;;;;;;21.40;15.20;;;;;3.80;97552.00;;;;16703136;28;20567;-51
2022/12/09 10:59:55;;;;;;;20.80;16.00;;;;;4.20;97539.00;;;;16688458;28;20222;-50
2022/12/09 11:07:58;;;;;;;29.70;16.37;;;;;3.70;97538.00;;;;16711099;28;20587;-48
2022/12/09 11:16:03;;;;;;;24.57;18.00;;;;;4.60;97528.00;;;;16716527;28;20650;-48
2022/12/09 11:24:11;;;;;;;30.37;18.20;;;;;4.20;97521.00;;;;16723153;28;20304;-48
2022/12/09 11:32:15;;;;;;;26.70;19.07;;;;;4.60;97516.00;;;;16724930;28;20214;-48
2022/12/09 11:40:18;;;;;;;23.53;18.07;;;;;4.30;97516.00;;;;16726197;28;20229;-49
2022/12/09 11:48:26;;;;;;;24.90;17.13;;;;;4.40;97494.00;;;;16698157;28;20306;-48
2022/12/09 11:56:29;;;;;;;24.03;17.50;;;;;4.80;97491.00;;;;16717350;28;20294;-48
2022/12/09 12:04:35;;;;;;;27.53;17.90;;;;;4.30;97495.00;;;;16727223;28;20222;-47
2022/12/09 12:12:43;;;;;;;23.87;18.73;;;;;4.60;97483.00;;;;16746537;28;20317;-47
2022/12/09 12:21:05;;;;;;;24.50;18.07;;;;;4.60;97474.00;;;;16718568;28;20422;-47
2022/12/09 12:29:33;;;;;;;23.47;18.30;;;;;4.80;97477.00;;;;16714691;28;20237;-48
2022/12/09 12:37:47;;;;;;;27.33;19.10;;;;;4.50;97469.00;;;;16715845;28;20224;-50
2022/12/09 12:54:23;;;;;;;23.80;19.30;;;;;4.70;97472.00;;;;16734411;28;20230;-48
2022/12/09 13:02:37;;;;;;;28.03;19.67;;;;;4.80;97472.00;;;;16720696;28;20778;-49
2022/12/09 13:10:42;;;;;;;29.50;20.30;;;;;5.20;97486.00;;;;16720333;28;20354;-49
2022/12/09 13:18:45;;;;;;;26.97;19.60;;;;;4.80;97490.00;;;;16715322;28;20226;-46
2022/12/09 13:26:52;;;;;;;22.43;18.93;;;;;4.90;97480.00;;;;16725503;28;20241;-49
2022/12/09 13:35:01;;;;;;;23.93;19.33;;;;;5.00;97498.00;;;;16695253;28;20665;-50
2022/12/09 13:43:16;;;;;;;27.43;22.10;;;;;5.00;97510.00;;;;16688223;28;20297;-51
2022/12/09 13:51:19;;;;;;;27.27;20.03;;;;;4.80;97498.00;;;;16715232;28;20646;-50
2022/12/09 13:59:38;;;;;;;27.90;18.93;;;;;4.70;97495.00;;;;16728362;28;20248;-49
2022/12/09 14:07:56;;;;;;;26.93;19.90;;;;;4.80;97492.00;;;;16718739;28;20219;-50
2022/12/09 14:16:34;;;;;;;32.47;22.90;;;;;5.00;97509.00;;;;16735128;28;20225;-49
2022/12/09 14:24:36;;;;;;;31.20;24.10;;;;;5.30;97495.00;;;;16671790;28;20235;-50
2022/12/09 14:32:53;;;;;;;32.97;22.80;;;;;4.90;97515.00;;;;16715102;28;20581;-48
2022/12/09 14:41:04;;;;;;;30.83;22.97;;;;;4.80;97514.00;;;;16721330;28;20764;-49
2022/12/09 14:49:13;;;;;;;34.93;23.83;;;;;4.80;97530.00;;;;16720753;28;20793;-50
2022/12/09 14:57:20;;;;;;;31.27;22.83;;;;;4.70;97530.00;;;;16691841;28;20423;-51
2022/12/09 15:05:25;;;;;;;33.00;24.90;;;;;4.50;97549.00;;;;16724162;28;20234;-48
2022/12/09 15:13:27;;;;;;;32.70;24.87;;;;;4.50;97542.00;;;;16722145;28;20234;-48
2022/12/09 15:21:32;;;;;;;36.40;25.27;;;;;5.00;97544.00;;;;16722523;28;20332;-50
2022/12/09 15:29:35;;;;;;;39.60;27.77;;;;;4.80;97550.00;;;;16720433;28;20878;-49
2022/12/09 15:37:39;;;;;;;41.83;28.97;;;;;4.70;97553.00;;;;16701418;28;20704;-49
2022/12/09 15:45:44;;;;;;;38.37;27.17;;;;;5.10;97562.00;;;;16714311;28;20723;-49
2022/12/09 15:53:53;;;;;;;43.00;27.70;;;;;5.00;97566.00;;;;16732802;28;20242;-49
2022/12/09 16:01:58;;;;;;;39.27;26.77;;;;;5.00;97578.00;;;;16721121;28;20203;-50
2022/12/09 16:10:08;;;;;;;46.47;30.20;;;;;5.00;97575.00;;;;16718898;28;20224;-48
2022/12/09 16:18:19;;;;;;;42.50;27.67;;;;;5.00;97573.00;;;;16709576;28;20855;-49
2022/12/09 16:26:27;;;;;;;41.20;27.07;;;;;5.30;97568.00;;;;16715244;28;20226;-49
2022/12/09 16:34:30;;;;;;;46.97;30.60;;;;;5.40;97578.00;;;;16712000;28;20228;-49
2022/12/09 16:42:34;;;;;;;44.63;30.87;;;;;5.30;97569.00;;;;16710343;28;20216;-49
2022/12/09 16:50:40;;;;;;;48.80;32.57;;;;;5.20;97579.00;;;;16707349;28;20223;-47
2022/12/09 16:58:44;;;;;;;44.60;29.63;;;;;4.90;97579.00;;;;16704633;28;20303;-47
2022/12/09 17:06:46;;;;;;;44.07;29.73;;;;;5.40;97579.00;;;;16721316;28;20230;-47
2022/12/09 17:14:51;;;;;;;45.93;30.20;;;;;5.10;97588.00;;;;16722255;28;20238;-49
2022/12/09 17:22:54;;;;;;;41.47;27.90;;;;;5.10;97596.00;;;;16719921;28;20201;-49
2022/12/09 17:30:58;;;;;;;47.30;34.67;;;;;5.40;97583.00;;;;16722363;28;20218;-48
2022/12/09 17:39:01;;;;;;;43.60;29.07;;;;;5.40;97581.00;;;;16746771;28;20325;-49
2022/12/09 17:47:05;;;;;;;46.70;29.00;;;;;5.30;97591.00;;;;16752248;28;20720;-48
2022/12/09 17:55:09;;;;;;;49.33;30.80;;;;;5.50;97582.00;;;;16754910;28;20232;-48
2022/12/09 18:03:13;;;;;;;48.80;32.80;;;;;7.00;97564.00;;;;16723488;28;20596;-49
2022/12/09 18:11:15;;;;;;;48.07;31.80;;;;;6.90;97584.00;;;;16728473;28;20239;-48
2022/12/09 18:19:22;;;;;;;50.10;31.07;;;;;5.60;97617.00;;;;16712763;28;20229;-48
2022/12/09 18:27:24;;;;;;;40.70;26.67;;;;;5.20;97630.00;;;;16727133;28;20226;-49
2022/12/09 18:35:28;;;;;;;49.93;32.40;;;;;4.90;97625.00;;;;16729076;28;20226;-49
2022/12/09 18:43:32;;;;;;;44.20;30.27;;;;;5.60;97636.00;;;;16730939;28;20297;-51
2022/12/09 18:51:37;;;;;;;55.67;33.60;;;;;5.30;97646.00;;;;16735725;28;20229;-50
2022/12/09 18:59:40;;;;;;;48.60;30.00;;;;;5.20;97631.00;;;;16739240;28;20224;-49
2022/12/09 19:07:44;;;;;;;50.30;32.10;;;;;5.10;97623.00;;;;16719913;28;20231;-49
2022/12/09 19:15:47;;;;;;;56.13;36.77;;;;;6.70;97615.00;;;;16721198;28;20244;-49
2022/12/09 19:23:51;;;;;;;57.07;35.63;;;;;7.00;97612.00;;;;16746028;28;20211;-49
2022/12/09 19:31:56;;;;;;;61.10;36.07;;;;;6.80;97617.00;;;;16717136;28;20216;-51
2022/12/09 19:40:00;;;;;;;51.13;32.07;;;;;6.20;97633.00;;;;16690193;28;20219;-49
2022/12/09 19:48:03;;;;;;;51.40;35.47;;;;;5.80;97641.00;;;;16709084;28;20312;-50
2022/12/09 19:56:08;;;;;;;50.30;32.73;;;;;5.70;97659.00;;;;16709146;28;20234;-50
2022/12/09 20:04:13;;;;;;;66.27;39.50;;;;;6.30;97642.00;;;;16712745;28;20227;-50
2022/12/09 20:12:17;;;;;;;44.83;30.03;;;;;5.60;97665.00;;;;16710022;28;20214;-50
2022/12/09 20:20:19;;;;;;;47.37;29.67;;;;;5.20;97673.00;;;;16719904;28;20235;-52
2022/12/09 20:28:23;;;;;;;48.67;31.83;;;;;5.40;97664.00;;;;16713571;28;20302;-50
2022/12/09 20:36:27;;;;;;;53.57;33.23;;;;;6.20;97653.00;;;;16712758;28;20294;-49
2022/12/09 20:44:32;;;;;;;49.20;33.13;;;;;5.80;97670.00;;;;16713941;28;20565;-50
2022/12/09 20:52:36;;;;;;;49.90;31.17;;;;;5.20;97684.00;;;;16718527;28;20222;-49
2022/12/09 21:00:39;;;;;;;43.37;28.90;;;;;5.30;97680.00;;;;16721460;28;20219;-50
2022/12/09 21:08:42;;;;;;;45.23;29.63;;;;;5.40;97680.00;;;;16748010;28;20218;-49
2022/12/09 21:16:49;;;;;;;47.40;31.90;;;;;5.40;97673.00;;;;16719775;28;20320;-48
2022/12/09 21:24:51;;;;;;;49.43;32.90;;;;;5.40;97673.00;;;;16721845;28;20794;-49
2022/12/09 21:32:55;;;;;;;51.07;31.77;;;;;5.30;97670.00;;;;16716144;28;20255;-50
2022/12/09 21:41:02;;;;;;;49.47;31.50;;;;;5.50;97674.00;;;;16719174;28;20221;-50
2022/12/09 21:49:07;;;;;;;50.13;30.80;;;;;5.30;97678.00;;;;16717591;28;20312;-50
2022/12/09 21:57:09;;;;;;;48.13;30.00;;;;;5.50;97679.00;;;;16720846;28;20243;-50
2022/12/09 22:05:13;;;;;;;46.70;32.23;;;;;5.10;97695.00;;;;16720261;28;20223;-50
2022/12/09 22:13:16;;;;;;;54.27;34.53;;;;;5.90;97694.00;;;;16738180;28;20649;-47
2022/12/09 22:21:21;;;;;;;45.90;31.83;;;;;6.20;97697.00;;;;16721288;28;20199;-49
2022/12/09 22:29:23;;;;;;;50.73;33.10;;;;;6.50;97703.00;;;;16723258;28;20361;-49
2022/12/09 22:37:27;;;;;;;45.13;31.07;;;;;6.30;97715.00;;;;16741384;28;20226;-50
2022/12/09 22:45:30;;;;;;;42.27;30.70;;;;;6.30;97711.00;;;;16738715;28;20314;-50
2022/12/09 22:53:34;;;;;;;43.83;32.20;;;;;6.30;97716.00;;;;16764348;28;20254;-50
2022/12/09 23:01:37;;;;;;;41.63;31.10;;;;;5.90;97724.00;;;;16728409;28;20661;-49
2022/12/09 23:09:41;;;;;;;43.47;29.57;;;;;5.30;97735.00;;;;16739907;28;20230;-48
2022/12/09 23:17:43;;;;;;;38.37;27.70;;;;;5.60;97715.00;;;;16741100;28;20854;-50
2022/12/09 23:25:47;;;;;;;44.83;32.43;;;;;5.80;97718.00;;;;16746821;28;20770;-49
2022/12/09 23:33:51;;;;;;;41.60;28.53;;;;;5.70;97715.00;;;;16727727;28;20314;-49
2022/12/09 23:41:55;;;;;;;34.67;27.63;;;;;5.50;97721.00;;;;16758901;28;20206;-47
2022/12/09 23:49:57;;;;;;;37.43;29.27;;;;;5.60;97719.00;;;;16738671;28;20352;-48
2022/12/09 23:58:01;;;;;;;42.17;31.43;;;;;6.40;97704.00;;;;16730223;28;20778;-49
